KRKD/RKD METAR and TAF weather

Enter ICAO airport designator
Station Type Date Time Source
KRKD METAR 2022/06/27 16:56 UTC NOAA

KRKD 271656Z AUTO 21009KT 4SM -RA BR OVC004 17/17 A2987 RMK AO2 SLP114 P0030 T01720172


Station Type Date Time Source
KRKD Decoded METAR 2022/06/27 16:56 UTC NOAA

Rockland, Knox County Regional Airport, ME, United States (KRKD) 44-04N 069-06W
Jun 27, 2022 - 12:56 PM EDT / 2022.06.27 1656 UTC
Wind: from the SSW (210 degrees) at 10 MPH (9 KT):0
Visibility: 4 mile(s):0
Sky conditions: overcast
Weather: light rain; mist
Precipitation last hour: 0.30 inches
Temperature: 63.0 F (17.2 C)
Dew Point: 63.0 F (17.2 C)
Relative Humidity: 100%
Pressure (altimeter): 29.87 in. Hg (1011 hPa)
ob: KRKD 271656Z AUTO 21009KT 4SM -RA BR OVC004 17/17 A2987 RMK AO2 SLP114 P0030 T01720172
cycle: 17

Station Type Date Time Source
KRKD TAF 2022/06/27 18:22 UTC NOAA

TAF KRKD 271720Z 2718/2818 21009KT 4SM -RA BR OVC004
TEMPO 2721/2724 P6SM -SHRA OVC012
FM280000 21005KT 1SM BR OVC004
FM280600 35002KT P6SM OVC100
FM280900 32004KT P6SM BKN250

Example: see airport list